sensor_id;sensor_type;location;lat;lon;timestamp;P1;durP1;ratioP1;P2;durP2;ratioP2
795;SDS011;381;48.770;9.188;2023-04-25T00:03:20;3.50;;;3.30;;
795;SDS011;381;48.770;9.188;2023-04-25T00:08:22;3.20;;;2.90;;
795;SDS011;381;48.770;9.188;2023-04-25T00:13:26;4.53;;;3.13;;
795;SDS011;381;48.770;9.188;2023-04-25T00:18:28;2.93;;;2.73;;
795;SDS011;381;48.770;9.188;2023-04-25T00:23:33;3.03;;;2.90;;
795;SDS011;381;48.770;9.188;2023-04-25T00:28:38;2.80;;;2.70;;
795;SDS011;381;48.770;9.188;2023-04-25T00:33:40;3.43;;;3.23;;
795;SDS011;381;48.770;9.188;2023-04-25T00:38:43;3.20;;;3.03;;
795;SDS011;381;48.770;9.188;2023-04-25T00:43:46;4.27;;;3.33;;
795;SDS011;381;48.770;9.188;2023-04-25T00:48:50;2.90;;;2.80;;
795;SDS011;381;48.770;9.188;2023-04-25T00:53:52;3.40;;;3.20;;
795;SDS011;381;48.770;9.188;2023-04-25T00:58:56;3.07;;;2.87;;
795;SDS011;381;48.770;9.188;2023-04-25T01:03:58;3.00;;;2.80;;
795;SDS011;381;48.770;9.188;2023-04-25T01:09:02;3.37;;;3.17;;
795;SDS011;381;48.770;9.188;2023-04-25T01:14:07;3.57;;;3.27;;
795;SDS011;381;48.770;9.188;2023-04-25T01:19:09;3.50;;;3.30;;
795;SDS011;381;48.770;9.188;2023-04-25T01:24:14;3.17;;;2.97;;
795;SDS011;381;48.770;9.188;2023-04-25T01:29:16;3.70;;;3.50;;
795;SDS011;381;48.770;9.188;2023-04-25T01:34:19;4.10;;;3.70;;
795;SDS011;381;48.770;9.188;2023-04-25T01:39:23;3.30;;;3.10;;
795;SDS011;381;48.770;9.188;2023-04-25T01:44:26;4.13;;;3.43;;
795;SDS011;381;48.770;9.188;2023-04-25T01:49:28;4.37;;;3.60;;
795;SDS011;381;48.770;9.188;2023-04-25T01:54:32;4.27;;;3.97;;
795;SDS011;381;48.770;9.188;2023-04-25T01:59:34;3.93;;;3.57;;
795;SDS011;381;48.770;9.188;2023-04-25T02:05:12;3.50;;;3.30;;
795;SDS011;381;48.770;9.188;2023-04-25T02:10:18;4.37;;;4.13;;
795;SDS011;381;48.770;9.188;2023-04-25T02:15:40;4.20;;;3.80;;
795;SDS011;381;48.770;9.188;2023-04-25T02:20:50;3.93;;;3.73;;
795;SDS011;381;48.770;9.188;2023-04-25T02:25:53;5.23;;;3.83;;
795;SDS011;381;48.770;9.188;2023-04-25T02:30:56;4.10;;;3.80;;
795;SDS011;381;48.770;9.188;2023-04-25T02:35:58;7.63;;;6.83;;
795;SDS011;381;48.770;9.188;2023-04-25T02:41:02;4.60;;;4.20;;
795;SDS011;381;48.770;9.188;2023-04-25T02:46:04;3.53;;;3.20;;
795;SDS011;381;48.770;9.188;2023-04-25T02:51:06;3.60;;;3.40;;
795;SDS011;381;48.770;9.188;2023-04-25T02:56:10;3.87;;;3.57;;
795;SDS011;381;48.770;9.188;2023-04-25T03:01:12;3.70;;;3.40;;
795;SDS011;381;48.770;9.188;2023-04-25T03:06:14;4.00;;;3.70;;
795;SDS011;381;48.770;9.188;2023-04-25T03:11:18;4.03;;;3.70;;
795;SDS011;381;48.770;9.188;2023-04-25T03:16:21;3.60;;;3.30;;
795;SDS011;381;48.770;9.188;2023-04-25T03:21:24;4.20;;;3.97;;
795;SDS011;381;48.770;9.188;2023-04-25T03:26:28;3.63;;;3.37;;
795;SDS011;381;48.770;9.188;2023-04-25T03:31:30;3.70;;;3.40;;
795;SDS011;381;48.770;9.188;2023-04-25T03:36:33;3.20;;;3.10;;
795;SDS011;381;48.770;9.188;2023-04-25T03:41:37;3.73;;;3.53;;
795;SDS011;381;48.770;9.188;2023-04-25T03:46:46;3.90;;;3.60;;
795;SDS011;381;48.770;9.188;2023-04-25T03:51:48;5.87;;;4.67;;
795;SDS011;381;48.770;9.188;2023-04-25T03:56:52;5.83;;;5.30;;
795;SDS011;381;48.770;9.188;2023-04-25T04:01:56;5.37;;;4.93;;
795;SDS011;381;48.770;9.188;2023-04-25T04:06:59;6.53;;;5.10;;
795;SDS011;381;48.770;9.188;2023-04-25T04:12:06;14.43;;;7.20;;
795;SDS011;381;48.770;9.188;2023-04-25T04:17:11;4.53;;;4.23;;
795;SDS011;381;48.770;9.188;2023-04-25T04:22:13;5.73;;;5.13;;
795;SDS011;381;48.770;9.188;2023-04-25T04:27:18;5.30;;;4.80;;
795;SDS011;381;48.770;9.188;2023-04-25T04:32:41;3.73;;;3.53;;
795;SDS011;381;48.770;9.188;2023-04-25T04:37:44;6.93;;;6.30;;
795;SDS011;381;48.770;9.188;2023-04-25T04:42:49;5.40;;;5.00;;
795;SDS011;381;48.770;9.188;2023-04-25T04:48:08;3.80;;;3.60;;
795;SDS011;381;48.770;9.188;2023-04-25T04:53:30;5.20;;;4.00;;
795;SDS011;381;48.770;9.188;2023-04-25T04:58:49;4.53;;;4.13;;
795;SDS011;381;48.770;9.188;2023-04-25T05:04:24;4.07;;;3.80;;
795;SDS011;381;48.770;9.188;2023-04-25T05:09:47;4.80;;;4.47;;
795;SDS011;381;48.770;9.188;2023-04-25T05:15:09;4.90;;;4.43;;
795;SDS011;381;48.770;9.188;2023-04-25T05:20:30;4.73;;;4.33;;
795;SDS011;381;48.770;9.188;2023-04-25T05:25:51;4.43;;;4.10;;
795;SDS011;381;48.770;9.188;2023-04-25T05:31:15;4.37;;;4.07;;
795;SDS011;381;48.770;9.188;2023-04-25T05:36:28;4.00;;;3.70;;
795;SDS011;381;48.770;9.188;2023-04-25T05:41:31;4.27;;;4.03;;
795;SDS011;381;48.770;9.188;2023-04-25T05:46:57;5.00;;;4.60;;
795;SDS011;381;48.770;9.188;2023-04-25T05:52:18;4.57;;;4.27;;
795;SDS011;381;48.770;9.188;2023-04-25T05:57:41;4.70;;;4.30;;
795;SDS011;381;48.770;9.188;2023-04-25T06:02:48;4.27;;;3.97;;
795;SDS011;381;48.770;9.188;2023-04-25T06:07:51;3.40;;;3.20;;
795;SDS011;381;48.770;9.188;2023-04-25T06:12:54;3.47;;;3.27;;
795;SDS011;381;48.770;9.188;2023-04-25T06:17:59;4.00;;;3.63;;
795;SDS011;381;48.770;9.188;2023-04-25T06:23:01;3.80;;;3.60;;
795;SDS011;381;48.770;9.188;2023-04-25T06:28:18;4.10;;;3.90;;
795;SDS011;381;48.770;9.188;2023-04-25T06:33:23;3.67;;;3.47;;
795;SDS011;381;48.770;9.188;2023-04-25T06:38:28;3.70;;;3.50;;
795;SDS011;381;48.770;9.188;2023-04-25T06:43:32;4.70;;;4.33;;
795;SDS011;381;48.770;9.188;2023-04-25T06:48:44;5.10;;;4.70;;
795;SDS011;381;48.770;9.188;2023-04-25T06:53:47;4.77;;;4.47;;
795;SDS011;381;48.770;9.188;2023-04-25T06:58:58;5.50;;;5.17;;
795;SDS011;381;48.770;9.188;2023-04-25T07:04:11;4.83;;;4.53;;
795;SDS011;381;48.770;9.188;2023-04-25T07:09:19;4.63;;;4.33;;
795;SDS011;381;48.770;9.188;2023-04-25T07:14:25;5.47;;;5.17;;
795;SDS011;381;48.770;9.188;2023-04-25T07:19:29;5.27;;;4.87;;
795;SDS011;381;48.770;9.188;2023-04-25T07:24:35;5.80;;;5.40;;
795;SDS011;381;48.770;9.188;2023-04-25T07:29:39;5.93;;;5.53;;
795;SDS011;381;48.770;9.188;2023-04-25T07:34:42;6.10;;;5.70;;
795;SDS011;381;48.770;9.188;2023-04-25T07:39:44;6.13;;;5.67;;
795;SDS011;381;48.770;9.188;2023-04-25T07:44:47;6.50;;;6.03;;
795;SDS011;381;48.770;9.188;2023-04-25T07:49:51;5.70;;;5.40;;
795;SDS011;381;48.770;9.188;2023-04-25T07:54:53;5.97;;;5.57;;
795;SDS011;381;48.770;9.188;2023-04-25T08:00:03;5.03;;;4.73;;
795;SDS011;381;48.770;9.188;2023-04-25T08:05:15;6.23;;;5.73;;
795;SDS011;381;48.770;9.188;2023-04-25T08:10:22;6.40;;;5.90;;
795;SDS011;381;48.770;9.188;2023-04-25T08:15:25;7.60;;;5.60;;
795;SDS011;381;48.770;9.188;2023-04-25T08:20:28;6.70;;;6.10;;
795;SDS011;381;48.770;9.188;2023-04-25T08:25:33;6.70;;;6.20;;
795;SDS011;381;48.770;9.188;2023-04-25T08:30:36;7.67;;;6.97;;
795;SDS011;381;48.770;9.188;2023-04-25T08:35:42;9.40;;;7.10;;
795;SDS011;381;48.770;9.188;2023-04-25T08:40:46;7.20;;;6.60;;
795;SDS011;381;48.770;9.188;2023-04-25T08:45:52;7.03;;;6.43;;
795;SDS011;381;48.770;9.188;2023-04-25T08:51:06;6.73;;;6.23;;
795;SDS011;381;48.770;9.188;2023-04-25T08:56:09;8.00;;;7.23;;
795;SDS011;381;48.770;9.188;2023-04-25T09:01:14;7.97;;;7.40;;
795;SDS011;381;48.770;9.188;2023-04-25T09:06:24;8.00;;;7.40;;
795;SDS011;381;48.770;9.188;2023-04-25T09:11:26;7.80;;;7.20;;
795;SDS011;381;48.770;9.188;2023-04-25T09:16:29;7.60;;;7.00;;
795;SDS011;381;48.770;9.188;2023-04-25T09:21:55;7.50;;;6.90;;
795;SDS011;381;48.770;9.188;2023-04-25T09:26:58;8.50;;;7.80;;
795;SDS011;381;48.770;9.188;2023-04-25T09:32:11;7.73;;;7.23;;
795;SDS011;381;48.770;9.188;2023-04-25T09:37:19;9.10;;;8.50;;
795;SDS011;381;48.770;9.188;2023-04-25T09:42:42;8.17;;;7.57;;
795;SDS011;381;48.770;9.188;2023-04-25T09:47:44;8.70;;;8.10;;
795;SDS011;381;48.770;9.188;2023-04-25T09:53:02;12.00;;;11.00;;
795;SDS011;381;48.770;9.188;2023-04-25T09:58:17;10.40;;;9.70;;
795;SDS011;381;48.770;9.188;2023-04-25T10:03:21;15.20;;;12.17;;
795;SDS011;381;48.770;9.188;2023-04-25T10:08:51;10.30;;;9.60;;
795;SDS011;381;48.770;9.188;2023-04-25T10:13:56;8.03;;;7.53;;
795;SDS011;381;48.770;9.188;2023-04-25T10:18:58;8.70;;;8.10;;
795;SDS011;381;48.770;9.188;2023-04-25T10:24:02;4.90;;;4.60;;
795;SDS011;381;48.770;9.188;2023-04-25T10:29:04;7.00;;;6.60;;
795;SDS011;381;48.770;9.188;2023-04-25T10:34:07;8.07;;;7.50;;
795;SDS011;381;48.770;9.188;2023-04-25T10:39:10;7.87;;;7.47;;
795;SDS011;381;48.770;9.188;2023-04-25T10:44:12;7.87;;;7.37;;
795;SDS011;381;48.770;9.188;2023-04-25T10:49:28;6.30;;;6.00;;
795;SDS011;381;48.770;9.188;2023-04-25T10:54:33;8.13;;;7.60;;
795;SDS011;381;48.770;9.188;2023-04-25T10:59:35;9.83;;;9.13;;
795;SDS011;381;48.770;9.188;2023-04-25T11:04:37;12.07;;;11.30;;
795;SDS011;381;48.770;9.188;2023-04-25T11:09:43;12.67;;;11.87;;
795;SDS011;381;48.770;9.188;2023-04-25T11:14:47;11.07;;;10.47;;
795;SDS011;381;48.770;9.188;2023-04-25T11:19:49;11.40;;;10.80;;
795;SDS011;381;48.770;9.188;2023-04-25T11:24:52;10.83;;;10.13;;
795;SDS011;381;48.770;9.188;2023-04-25T11:29:55;11.57;;;10.77;;
795;SDS011;381;48.770;9.188;2023-04-25T11:34:57;10.03;;;9.37;;
795;SDS011;381;48.770;9.188;2023-04-25T11:40:00;7.40;;;6.80;;
795;SDS011;381;48.770;9.188;2023-04-25T11:45:04;7.60;;;7.20;;
795;SDS011;381;48.770;9.188;2023-04-25T11:50:08;9.40;;;8.73;;
795;SDS011;381;48.770;9.188;2023-04-25T11:55:14;9.60;;;9.00;;
795;SDS011;381;48.770;9.188;2023-04-25T12:00:18;11.20;;;10.50;;
795;SDS011;381;48.770;9.188;2023-04-25T12:05:23;11.13;;;10.43;;
795;SDS011;381;48.770;9.188;2023-04-25T12:10:28;12.60;;;11.80;;
795;SDS011;381;48.770;9.188;2023-04-25T12:15:30;12.07;;;11.23;;
795;SDS011;381;48.770;9.188;2023-04-25T12:20:35;12.23;;;11.43;;
795;SDS011;381;48.770;9.188;2023-04-25T12:25:39;11.70;;;10.77;;
795;SDS011;381;48.770;9.188;2023-04-25T12:30:54;11.23;;;10.43;;
795;SDS011;381;48.770;9.188;2023-04-25T12:35:57;11.93;;;11.13;;
795;SDS011;381;48.770;9.188;2023-04-25T12:41:02;11.83;;;11.03;;
795;SDS011;381;48.770;9.188;2023-04-25T12:46:04;10.33;;;9.33;;
795;SDS011;381;48.770;9.188;2023-04-25T12:51:06;11.90;;;10.90;;
795;SDS011;381;48.770;9.188;2023-04-25T12:56:10;10.90;;;10.20;;
795;SDS011;381;48.770;9.188;2023-04-25T13:01:12;12.27;;;11.37;;
795;SDS011;381;48.770;9.188;2023-04-25T13:06:15;12.63;;;11.43;;
795;SDS011;381;48.770;9.188;2023-04-25T13:11:18;12.37;;;11.37;;
795;SDS011;381;48.770;9.188;2023-04-25T13:16:21;9.73;;;8.93;;
795;SDS011;381;48.770;9.188;2023-04-25T13:21:23;10.17;;;9.47;;
795;SDS011;381;48.770;9.188;2023-04-25T13:26:27;11.03;;;10.10;;
795;SDS011;381;48.770;9.188;2023-04-25T13:31:29;12.33;;;11.43;;
795;SDS011;381;48.770;9.188;2023-04-25T13:36:32;13.30;;;12.13;;
795;SDS011;381;48.770;9.188;2023-04-25T13:41:35;10.80;;;9.87;;
795;SDS011;381;48.770;9.188;2023-04-25T13:46:38;13.77;;;12.47;;
795;SDS011;381;48.770;9.188;2023-04-25T13:51:40;13.27;;;12.07;;
795;SDS011;381;48.770;9.188;2023-04-25T13:56:43;14.70;;;13.57;;
795;SDS011;381;48.770;9.188;2023-04-25T14:01:45;14.23;;;13.07;;
795;SDS011;381;48.770;9.188;2023-04-25T14:06:48;14.73;;;13.50;;
795;SDS011;381;48.770;9.188;2023-04-25T14:11:51;14.40;;;13.00;;
795;SDS011;381;48.770;9.188;2023-04-25T14:16:53;17.00;;;15.50;;
795;SDS011;381;48.770;9.188;2023-04-25T14:21:57;12.80;;;11.80;;
795;SDS011;381;48.770;9.188;2023-04-25T14:27:00;11.97;;;11.07;;
795;SDS011;381;48.770;9.188;2023-04-25T14:32:03;13.00;;;11.87;;
795;SDS011;381;48.770;9.188;2023-04-25T14:37:05;10.40;;;9.50;;
795;SDS011;381;48.770;9.188;2023-04-25T14:42:09;10.50;;;9.63;;
795;SDS011;381;48.770;9.188;2023-04-25T14:47:11;11.07;;;10.17;;
795;SDS011;381;48.770;9.188;2023-04-25T14:52:13;8.97;;;8.20;;
795;SDS011;381;48.770;9.188;2023-04-25T14:57:17;8.93;;;8.23;;
795;SDS011;381;48.770;9.188;2023-04-25T15:02:19;9.00;;;8.30;;
795;SDS011;381;48.770;9.188;2023-04-25T15:07:21;8.53;;;7.90;;
795;SDS011;381;48.770;9.188;2023-04-25T15:12:25;8.10;;;7.50;;
795;SDS011;381;48.770;9.188;2023-04-25T15:17:28;8.17;;;7.57;;
795;SDS011;381;48.770;9.188;2023-04-25T15:22:31;9.00;;;8.13;;
795;SDS011;381;48.770;9.188;2023-04-25T15:27:34;9.30;;;8.50;;
795;SDS011;381;48.770;9.188;2023-04-25T15:32:40;9.80;;;9.10;;
795;SDS011;381;48.770;9.188;2023-04-25T15:37:42;8.93;;;8.10;;
795;SDS011;381;48.770;9.188;2023-04-25T15:42:47;10.30;;;9.37;;
795;SDS011;381;48.770;9.188;2023-04-25T15:47:51;9.73;;;9.03;;
795;SDS011;381;48.770;9.188;2023-04-25T15:52:54;8.80;;;8.10;;
795;SDS011;381;48.770;9.188;2023-04-25T15:57:58;9.37;;;7.80;;
795;SDS011;381;48.770;9.188;2023-04-25T16:03:00;9.67;;;8.60;;
795;SDS011;381;48.770;9.188;2023-04-25T16:08:03;8.37;;;7.53;;
795;SDS011;381;48.770;9.188;2023-04-25T16:13:06;9.80;;;9.00;;
795;SDS011;381;48.770;9.188;2023-04-25T16:18:09;7.90;;;7.30;;
795;SDS011;381;48.770;9.188;2023-04-25T16:23:11;9.00;;;8.00;;
795;SDS011;381;48.770;9.188;2023-04-25T16:28:15;9.23;;;8.00;;
795;SDS011;381;48.770;9.188;2023-04-25T16:33:17;9.43;;;8.73;;
795;SDS011;381;48.770;9.188;2023-04-25T16:38:19;8.90;;;8.20;;
795;SDS011;381;48.770;9.188;2023-04-25T16:43:23;8.70;;;7.90;;
795;SDS011;381;48.770;9.188;2023-04-25T16:48:25;8.40;;;7.60;;
795;SDS011;381;48.770;9.188;2023-04-25T16:53:27;9.47;;;8.60;;
795;SDS011;381;48.770;9.188;2023-04-25T16:58:31;9.43;;;8.53;;
795;SDS011;381;48.770;9.188;2023-04-25T17:03:33;10.40;;;8.60;;
795;SDS011;381;48.770;9.188;2023-04-25T17:08:35;8.53;;;7.73;;
795;SDS011;381;48.770;9.188;2023-04-25T17:13:38;8.67;;;8.00;;
795;SDS011;381;48.770;9.188;2023-04-25T17:18:42;8.17;;;7.47;;
795;SDS011;381;48.770;9.188;2023-04-25T17:23:45;8.53;;;7.83;;
795;SDS011;381;48.770;9.188;2023-04-25T17:28:48;8.80;;;8.07;;
795;SDS011;381;48.770;9.188;2023-04-25T17:33:51;8.33;;;7.53;;
795;SDS011;381;48.770;9.188;2023-04-25T17:38:53;7.97;;;7.37;;
795;SDS011;381;48.770;9.188;2023-04-25T17:43:56;10.13;;;7.27;;
795;SDS011;381;48.770;9.188;2023-04-25T17:48:59;8.40;;;7.60;;
795;SDS011;381;48.770;9.188;2023-04-25T17:54:01;9.03;;;8.23;;
795;SDS011;381;48.770;9.188;2023-04-25T17:59:04;11.00;;;8.30;;
795;SDS011;381;48.770;9.188;2023-04-25T18:04:07;7.73;;;7.10;;
795;SDS011;381;48.770;9.188;2023-04-25T18:09:09;9.20;;;8.03;;
795;SDS011;381;48.770;9.188;2023-04-25T18:14:18;9.30;;;8.40;;
795;SDS011;381;48.770;9.188;2023-04-25T18:19:21;10.00;;;9.20;;
795;SDS011;381;48.770;9.188;2023-04-25T18:24:23;11.93;;;10.93;;
795;SDS011;381;48.770;9.188;2023-04-25T18:29:27;11.73;;;10.63;;
795;SDS011;381;48.770;9.188;2023-04-25T18:34:30;11.93;;;10.83;;
795;SDS011;381;48.770;9.188;2023-04-25T18:39:33;12.80;;;11.00;;
795;SDS011;381;48.770;9.188;2023-04-25T18:44:36;11.73;;;10.73;;
795;SDS011;381;48.770;9.188;2023-04-25T18:49:40;12.90;;;11.50;;
795;SDS011;381;48.770;9.188;2023-04-25T18:54:43;17.40;;;14.17;;
795;SDS011;381;48.770;9.188;2023-04-25T18:59:46;14.10;;;12.70;;
795;SDS011;381;48.770;9.188;2023-04-25T19:04:49;15.63;;;14.00;;
795;SDS011;381;48.770;9.188;2023-04-25T19:09:51;14.40;;;12.40;;
795;SDS011;381;48.770;9.188;2023-04-25T19:14:55;13.30;;;12.10;;
795;SDS011;381;48.770;9.188;2023-04-25T19:20:00;12.70;;;11.40;;
795;SDS011;381;48.770;9.188;2023-04-25T19:25:03;11.97;;;10.67;;
795;SDS011;381;48.770;9.188;2023-04-25T19:30:08;11.97;;;10.97;;
795;SDS011;381;48.770;9.188;2023-04-25T19:35:14;16.90;;;14.60;;
795;SDS011;381;48.770;9.188;2023-04-25T19:40:20;12.30;;;11.07;;
795;SDS011;381;48.770;9.188;2023-04-25T19:45:24;52.80;;;34.90;;
795;SDS011;381;48.770;9.188;2023-04-25T19:50:26;32.70;;;23.80;;
795;SDS011;381;48.770;9.188;2023-04-25T19:55:29;19.60;;;16.70;;
795;SDS011;381;48.770;9.188;2023-04-25T20:00:33;17.43;;;15.63;;
795;SDS011;381;48.770;9.188;2023-04-25T20:05:35;14.60;;;13.20;;
795;SDS011;381;48.770;9.188;2023-04-25T20:10:38;11.50;;;10.30;;
795;SDS011;381;48.770;9.188;2023-04-25T20:15:45;9.93;;;9.13;;
795;SDS011;381;48.770;9.188;2023-04-25T20:20:47;11.30;;;10.20;;
795;SDS011;381;48.770;9.188;2023-04-25T20:25:49;12.57;;;11.50;;
795;SDS011;381;48.770;9.188;2023-04-25T20:30:52;12.40;;;10.30;;
795;SDS011;381;48.770;9.188;2023-04-25T20:35:55;10.57;;;9.60;;
795;SDS011;381;48.770;9.188;2023-04-25T20:40:59;10.60;;;9.70;;
795;SDS011;381;48.770;9.188;2023-04-25T20:46:04;11.77;;;9.50;;
795;SDS011;381;48.770;9.188;2023-04-25T20:51:06;11.27;;;10.17;;
795;SDS011;381;48.770;9.188;2023-04-25T20:56:08;11.60;;;10.60;;
795;SDS011;381;48.770;9.188;2023-04-25T21:01:13;10.03;;;8.83;;
795;SDS011;381;48.770;9.188;2023-04-25T21:06:16;8.50;;;7.73;;
795;SDS011;381;48.770;9.188;2023-04-25T21:11:19;8.50;;;7.90;;
795;SDS011;381;48.770;9.188;2023-04-25T21:16:23;9.30;;;7.43;;
795;SDS011;381;48.770;9.188;2023-04-25T21:21:25;8.90;;;8.10;;
795;SDS011;381;48.770;9.188;2023-04-25T21:26:28;8.70;;;8.00;;
795;SDS011;381;48.770;9.188;2023-04-25T21:31:31;9.63;;;8.67;;
795;SDS011;381;48.770;9.188;2023-04-25T21:36:34;10.60;;;8.93;;
795;SDS011;381;48.770;9.188;2023-04-25T21:41:36;7.77;;;7.07;;
795;SDS011;381;48.770;9.188;2023-04-25T21:46:39;11.97;;;8.33;;
795;SDS011;381;48.770;9.188;2023-04-25T21:51:42;8.83;;;8.13;;
795;SDS011;381;48.770;9.188;2023-04-25T21:56:44;8.53;;;7.80;;
795;SDS011;381;48.770;9.188;2023-04-25T22:01:47;10.40;;;8.10;;
795;SDS011;381;48.770;9.188;2023-04-25T22:06:49;12.10;;;8.17;;
795;SDS011;381;48.770;9.188;2023-04-25T22:11:52;8.60;;;7.90;;
795;SDS011;381;48.770;9.188;2023-04-25T22:16:55;9.30;;;8.37;;
795;SDS011;381;48.770;9.188;2023-04-25T22:21:57;11.07;;;8.77;;
795;SDS011;381;48.770;9.188;2023-04-25T22:26:59;8.83;;;7.50;;
795;SDS011;381;48.770;9.188;2023-04-25T22:32:04;9.33;;;8.47;;
795;SDS011;381;48.770;9.188;2023-04-25T22:37:06;9.43;;;8.50;;
795;SDS011;381;48.770;9.188;2023-04-25T22:42:08;8.80;;;8.10;;
795;SDS011;381;48.770;9.188;2023-04-25T22:47:11;9.70;;;8.70;;
795;SDS011;381;48.770;9.188;2023-04-25T22:52:15;9.10;;;8.30;;
795;SDS011;381;48.770;9.188;2023-04-25T22:57:20;9.87;;;8.87;;
795;SDS011;381;48.770;9.188;2023-04-25T23:02:24;11.23;;;8.57;;
795;SDS011;381;48.770;9.188;2023-04-25T23:07:26;8.80;;;8.00;;
795;SDS011;381;48.770;9.188;2023-04-25T23:12:31;9.20;;;8.40;;
795;SDS011;381;48.770;9.188;2023-04-25T23:17:36;12.53;;;8.60;;
795;SDS011;381;48.770;9.188;2023-04-25T23:22:39;10.40;;;9.23;;
795;SDS011;381;48.770;9.188;2023-04-25T23:27:41;10.93;;;8.00;;
795;SDS011;381;48.770;9.188;2023-04-25T23:32:45;8.67;;;7.87;;
795;SDS011;381;48.770;9.188;2023-04-25T23:37:47;9.07;;;8.23;;
795;SDS011;381;48.770;9.188;2023-04-25T23:42:49;9.07;;;8.10;;
795;SDS011;381;48.770;9.188;2023-04-25T23:47:53;8.23;;;7.50;;
795;SDS011;381;48.770;9.188;2023-04-25T23:52:55;9.23;;;8.30;;
795;SDS011;381;48.770;9.188;2023-04-25T23:57:57;13.63;;;7.10;;
